sensor_id;sensor_type;location;lat;lon;timestamp;pressure;altitude;pressure_sealevel;temperature;humidity
24868;BME280;12941;48.698;9.310;2023-07-31T00:00:20;97921;;;21.92;56.122
24868;BME280;12941;48.698;9.310;2023-07-31T00:01:20;97928;;;21.91;55.956
24868;BME280;12941;48.698;9.310;2023-07-31T00:02:25;97930.6;;;21.91;55.502
24868;BME280;12941;48.698;9.310;2023-07-31T00:03:25;97926.2;;;21.92;55.458
24868;BME280;12941;48.698;9.310;2023-07-31T00:04:30;97935.79999999999;;;21.91;55.458
24868;BME280;12941;48.698;9.310;2023-07-31T00:05:30;97923.1;;;21.88;55.632
24868;BME280;12941;48.698;9.310;2023-07-31T00:06:35;97930.9;;;21.88;55.809
24868;BME280;12941;48.698;9.310;2023-07-31T00:07:40;97931.1;;;21.87;56.183
24868;BME280;12941;48.698;9.310;2023-07-31T00:08:45;97921.7;;;21.84;55.958
24868;BME280;12941;48.698;9.310;2023-07-31T00:09:45;97923.7;;;21.82;55.9
24868;BME280;12941;48.698;9.310;2023-07-31T00:10:45;97926.59999999999;;;21.79;56.505
24868;BME280;12941;48.698;9.310;2023-07-31T00:11:50;97927.9;;;21.75;56.897
24868;BME280;12941;48.698;9.310;2023-07-31T00:12:50;97923.7;;;21.74;57.019
24868;BME280;12941;48.698;9.310;2023-07-31T00:13:55;97923.1;;;21.7;57.048
24868;BME280;12941;48.698;9.310;2023-07-31T00:15:00;97919.9;;;21.68;57.155
24868;BME280;12941;48.698;9.310;2023-07-31T00:16:05;97924.40000000001;;;21.66;57.142
24868;BME280;12941;48.698;9.310;2023-07-31T00:17:05;97925.5;;;21.64;57.293
24868;BME280;12941;48.698;9.310;2023-07-31T00:18:10;97927.3;;;21.63;57.48
24868;BME280;12941;48.698;9.310;2023-07-31T00:19:10;97931.7;;;21.63;57.227
24868;BME280;12941;48.698;9.310;2023-07-31T00:20:15;97923.40000000001;;;21.59;57.231
24868;BME280;12941;48.698;9.310;2023-07-31T00:21:15;97931.2;;;21.59;57.563
24868;BME280;12941;48.698;9.310;2023-07-31T00:22:20;97925.3;;;21.57;57.494
24868;BME280;12941;48.698;9.310;2023-07-31T00:23:25;97928.9;;;21.56;57.229
24868;BME280;12941;48.698;9.310;2023-07-31T00:24:30;97931.5;;;21.56;57.151
24868;BME280;12941;48.698;9.310;2023-07-31T00:25:30;97933.4;;;21.54;57.104
24868;BME280;12941;48.698;9.310;2023-07-31T00:26:35;97923.29999999999;;;21.51;57.199
24868;BME280;12941;48.698;9.310;2023-07-31T00:27:40;97926.9;;;21.5;57.685
24868;BME280;12941;48.698;9.310;2023-07-31T00:28:40;97933.1;;;21.49;56.39
24868;BME280;12941;48.698;9.310;2023-07-31T00:29:45;97933.2;;;21.48;56.808
24868;BME280;12941;48.698;9.310;2023-07-31T00:30:50;97930.7;;;21.46;56.496
24868;BME280;12941;48.698;9.310;2023-07-31T00:31:55;97927.5;;;21.44;57.224
24868;BME280;12941;48.698;9.310;2023-07-31T00:33:00;97927.5;;;21.44;57.19
24868;BME280;12941;48.698;9.310;2023-07-31T00:34:05;97928.3;;;21.44;57.158
24868;BME280;12941;48.698;9.310;2023-07-31T00:35:05;97923.6;;;21.4;57.285
24868;BME280;12941;48.698;9.310;2023-07-31T00:36:05;97921.3;;;21.37;57.479
24868;BME280;12941;48.698;9.310;2023-07-31T00:37:05;97918.8;;;21.35;57.002
24868;BME280;12941;48.698;9.310;2023-07-31T00:38:10;97921.5;;;21.34;57.034
24868;BME280;12941;48.698;9.310;2023-07-31T00:39:15;97922.40000000001;;;21.34;57.223
24868;BME280;12941;48.698;9.310;2023-07-31T00:40:20;97919.9;;;21.33;57.652
24868;BME280;12941;48.698;9.310;2023-07-31T00:41:20;97923.5;;;21.32;57.595
24868;BME280;12941;48.698;9.310;2023-07-31T00:42:25;97924.5;;;21.31;57.362
24868;BME280;12941;48.698;9.310;2023-07-31T00:43:30;97919.4;;;21.29;57.525
24868;BME280;12941;48.698;9.310;2023-07-31T00:44:30;97916.3;;;21.26;57.863
24868;BME280;12941;48.698;9.310;2023-07-31T00:45:30;97926;;;21.24;58.203
24868;BME280;12941;48.698;9.310;2023-07-31T00:46:35;97920.8;;;21.24;58.016
24868;BME280;12941;48.698;9.310;2023-07-31T00:47:40;97921.6;;;21.24;58.16
24868;BME280;12941;48.698;9.310;2023-07-31T00:48:41;97922.6;;;21.23;58.622
24868;BME280;12941;48.698;9.310;2023-07-31T00:49:45;97912;;;21.25;58.734
24868;BME280;12941;48.698;9.310;2023-07-31T00:50:45;97920.8;;;21.24;58.612
24868;BME280;12941;48.698;9.310;2023-07-31T00:51:45;97919.2;;;21.23;58.189
24868;BME280;12941;48.698;9.310;2023-07-31T00:52:45;97918.3;;;21.22;58.212
24868;BME280;12941;48.698;9.310;2023-07-31T00:53:45;97912.3;;;21.22;57.947
24868;BME280;12941;48.698;9.310;2023-07-31T00:54:45;97913.3;;;21.21;58.011
24868;BME280;12941;48.698;9.310;2023-07-31T00:55:50;97909;;;21.2;57.988
24868;BME280;12941;48.698;9.310;2023-07-31T00:56:50;97900.5;;;21.18;58.483
24868;BME280;12941;48.698;9.310;2023-07-31T00:57:55;97899.7;;;21.17;58.15
24868;BME280;12941;48.698;9.310;2023-07-31T00:58:55;97904.1;;;21.17;58.437
24868;BME280;12941;48.698;9.310;2023-07-31T01:00:00;97899.8;;;21.16;58.557
24868;BME280;12941;48.698;9.310;2023-07-31T01:01:00;97900;;;21.14;58.245
24868;BME280;12941;48.698;9.310;2023-07-31T01:02:00;97898.5;;;21.11;58.188
24868;BME280;12941;48.698;9.310;2023-07-31T01:03:05;97897.5;;;21.12;58.354
24868;BME280;12941;48.698;9.310;2023-07-31T01:04:05;97899.5;;;21.1;58.65
24868;BME280;12941;48.698;9.310;2023-07-31T01:05:05;97899.5;;;21.1;58.474
24868;BME280;12941;48.698;9.310;2023-07-31T01:06:09;97896.2;;;21.08;58.239
24868;BME280;12941;48.698;9.310;2023-07-31T01:07:11;97897.29999999999;;;21.06;57.241
24868;BME280;12941;48.698;9.310;2023-07-31T01:08:17;97902;;;21.02;56.883
24868;BME280;12941;48.698;9.310;2023-07-31T01:09:16;97904.8;;;21.01;56.915
24868;BME280;12941;48.698;9.310;2023-07-31T01:10:21;97906.2;;;20.95;57.315
24868;BME280;12941;48.698;9.310;2023-07-31T01:11:22;97907.3;;;20.83;57.278
24868;BME280;12941;48.698;9.310;2023-07-31T01:12:20;97905.4;;;20.77;57.425
24868;BME280;12941;48.698;9.310;2023-07-31T01:13:20;97897.7;;;20.66;57.642
24868;BME280;12941;48.698;9.310;2023-07-31T01:14:20;97898.7;;;20.55;57.948
24868;BME280;12941;48.698;9.310;2023-07-31T01:15:25;97891.5;;;20.49;58.05
24868;BME280;12941;48.698;9.310;2023-07-31T01:16:25;97899.1;;;20.42;58.351
24868;BME280;12941;48.698;9.310;2023-07-31T01:17:25;97899.7;;;20.36;58.453
24868;BME280;12941;48.698;9.310;2023-07-31T01:18:25;97896;;;20.29;58.631
24868;BME280;12941;48.698;9.310;2023-07-31T01:19:30;97894;;;20.23;58.943
24868;BME280;12941;48.698;9.310;2023-07-31T01:20:30;97897.5;;;20.22;58.843
24868;BME280;12941;48.698;9.310;2023-07-31T01:21:37;97901.09999999999;;;20.21;58.918
24868;BME280;12941;48.698;9.310;2023-07-31T01:22:41;97897.5;;;20.22;58.832
24868;BME280;12941;48.698;9.310;2023-07-31T01:23:40;97894;;;20.23;58.877
24868;BME280;12941;48.698;9.310;2023-07-31T01:24:36;97900.8;;;20.24;58.823
24868;BME280;12941;48.698;9.310;2023-07-31T01:25:51;97902.4;;;20.25;58.791
24868;BME280;12941;48.698;9.310;2023-07-31T01:26:41;97897.2;;;20.25;58.604
24868;BME280;12941;48.698;9.310;2023-07-31T01:27:47;97897.79999999999;;;20.29;58.543
24868;BME280;12941;48.698;9.310;2023-07-31T01:28:54;97892.8;;;20.35;59.246
24868;BME280;12941;48.698;9.310;2023-07-31T01:29:54;97894.2;;;20.39;59.627
24868;BME280;12941;48.698;9.310;2023-07-31T01:30:55;97887.7;;;20.43;59.565
24868;BME280;12941;48.698;9.310;2023-07-31T01:32:01;97891.7;;;20.48;59.395
24868;BME280;12941;48.698;9.310;2023-07-31T01:33:01;97885.29999999999;;;20.5;59.288
24868;BME280;12941;48.698;9.310;2023-07-31T01:34:06;97891.09999999999;;;20.54;59.357
24868;BME280;12941;48.698;9.310;2023-07-31T01:35:06;97885.90000000001;;;20.54;58.972
24868;BME280;12941;48.698;9.310;2023-07-31T01:36:11;97885.6;;;20.57;59.107
24868;BME280;12941;48.698;9.310;2023-07-31T01:37:16;97881.2;;;20.57;59.23
24868;BME280;12941;48.698;9.310;2023-07-31T01:38:16;97884.5;;;20.59;59.376
24868;BME280;12941;48.698;9.310;2023-07-31T01:39:21;97884.2;;;20.62;59.238
24868;BME280;12941;48.698;9.310;2023-07-31T01:40:21;97884.2;;;20.62;59.072
24868;BME280;12941;48.698;9.310;2023-07-31T01:41:21;97877.9;;;20.65;59.33
24868;BME280;12941;48.698;9.310;2023-07-31T01:42:26;97885.5;;;20.66;59.265
24868;BME280;12941;48.698;9.310;2023-07-31T01:43:31;97876.8;;;20.67;59.311
24868;BME280;12941;48.698;9.310;2023-07-31T01:44:36;97883.6;;;20.68;59.069
24868;BME280;12941;48.698;9.310;2023-07-31T01:45:36;97877.3;;;20.71;58.896
24868;BME280;12941;48.698;9.310;2023-07-31T01:46:41;97882.5;;;20.71;59.139
24868;BME280;12941;48.698;9.310;2023-07-31T01:47:41;97881.5;;;20.72;59.029
24868;BME280;12941;48.698;9.310;2023-07-31T01:48:46;97885.79999999999;;;20.73;59.263
24868;BME280;12941;48.698;9.310;2023-07-31T01:49:46;97875.3;;;20.73;58.954
24868;BME280;12941;48.698;9.310;2023-07-31T01:50:46;97880.6;;;20.73;58.888
24868;BME280;12941;48.698;9.310;2023-07-31T01:51:46;97879.9;;;20.71;58.83
24868;BME280;12941;48.698;9.310;2023-07-31T01:52:51;97875.3;;;20.73;59.252
24868;BME280;12941;48.698;9.310;2023-07-31T01:53:51;97884.1;;;20.72;58.996
24868;BME280;12941;48.698;9.310;2023-07-31T01:54:58;97884.1;;;20.72;59.029
24868;BME280;12941;48.698;9.310;2023-07-31T01:56:01;97878;;;20.73;59.196
24868;BME280;12941;48.698;9.310;2023-07-31T01:57:01;97880.6;;;20.73;59.373
24868;BME280;12941;48.698;9.310;2023-07-31T01:58:01;97875.3;;;20.73;59.064
24868;BME280;12941;48.698;9.310;2023-07-31T01:59:06;97884.1;;;20.72;59.118
24868;BME280;12941;48.698;9.310;2023-07-31T02:00:11;97882.5;;;20.71;59.039
24868;BME280;12941;48.698;9.310;2023-07-31T02:01:11;97882.8;;;20.68;59.233
24868;BME280;12941;48.698;9.310;2023-07-31T02:02:16;97875.9;;;20.67;59.078
24868;BME280;12941;48.698;9.310;2023-07-31T02:03:21;97883.1;;;20.65;59.484
24868;BME280;12941;48.698;9.310;2023-07-31T02:04:21;97879.8;;;20.63;59.227
24868;BME280;12941;48.698;9.310;2023-07-31T02:05:26;97879.8;;;20.63;59.381
24868;BME280;12941;48.698;9.310;2023-07-31T02:06:26;97874.59999999999;;;20.63;59.745
24868;BME280;12941;48.698;9.310;2023-07-31T02:07:31;97877.3;;;20.61;59.754
24868;BME280;12941;48.698;9.310;2023-07-31T02:08:31;97876.5;;;20.61;59.632
24868;BME280;12941;48.698;9.310;2023-07-31T02:09:31;97874.1;;;20.59;59.916
24868;BME280;12941;48.698;9.310;2023-07-31T02:10:36;97880.9;;;20.6;59.731
24868;BME280;12941;48.698;9.310;2023-07-31T02:11:36;97875.2;;;20.57;59.88
24868;BME280;12941;48.698;9.310;2023-07-31T02:12:41;97878.7;;;20.56;59.979
24868;BME280;12941;48.698;9.310;2023-07-31T02:13:41;97874.5;;;20.55;60.142
24868;BME280;12941;48.698;9.310;2023-07-31T02:14:46;97876.3;;;20.54;60.538
24868;BME280;12941;48.698;9.310;2023-07-31T02:15:47;97878.2;;;20.52;60.547
24868;BME280;12941;48.698;9.310;2023-07-31T02:16:51;97875.7;;;20.51;59.707
24868;BME280;12941;48.698;9.310;2023-07-31T02:17:51;97876;;;20.48;59.582
24868;BME280;12941;48.698;9.310;2023-07-31T02:18:56;97866.8;;;20.45;59.722
24868;BME280;12941;48.698;9.310;2023-07-31T02:20:01;97862.7;;;20.42;59.927
24868;BME280;12941;48.698;9.310;2023-07-31T02:21:01;97859.40000000001;;;20.4;60.034
24868;BME280;12941;48.698;9.310;2023-07-31T02:22:06;97855.1;;;20.39;60.288
24868;BME280;12941;48.698;9.310;2023-07-31T02:23:06;97856.9;;;20.39;60
24868;BME280;12941;48.698;9.310;2023-07-31T02:24:06;97851.70000000001;;;20.39;60.231
24868;BME280;12941;48.698;9.310;2023-07-31T02:25:11;97850.9;;;20.38;60.032
24868;BME280;12941;48.698;9.310;2023-07-31T02:26:16;97849.2;;;20.37;60.284
24868;BME280;12941;48.698;9.310;2023-07-31T02:27:16;97848.40000000001;;;20.37;60.229
24868;BME280;12941;48.698;9.310;2023-07-31T02:28:21;97847.5;;;20.38;60.395
24868;BME280;12941;48.698;9.310;2023-07-31T02:29:26;97844.9;;;20.38;60.691
24868;BME280;12941;48.698;9.310;2023-07-31T02:30:26;97849.2;;;20.37;60.614
24868;BME280;12941;48.698;9.310;2023-07-31T02:31:28;97846.6;;;20.37;60.593
24868;BME280;12941;48.698;9.310;2023-07-31T02:32:31;97847.6;;;20.36;60.713
24868;BME280;12941;48.698;9.310;2023-07-31T02:33:37;97844;;;20.37;60.923
24868;BME280;12941;48.698;9.310;2023-07-31T02:34:41;97841.4;;;20.37;60.769
24868;BME280;12941;48.698;9.310;2023-07-31T02:35:41;97846.8;;;20.36;60.689
24868;BME280;12941;48.698;9.310;2023-07-31T02:36:41;97846.90000000001;;;20.34;60.236
24868;BME280;12941;48.698;9.310;2023-07-31T02:37:46;97845.3;;;20.33;60.509
24868;BME280;12941;48.698;9.310;2023-07-31T02:38:51;97841.8;;;20.33;60.454
24868;BME280;12941;48.698;9.310;2023-07-31T02:39:51;97841;;;20.32;60.696
24868;BME280;12941;48.698;9.310;2023-07-31T02:40:56;97839.4;;;20.31;60.683
24868;BME280;12941;48.698;9.310;2023-07-31T02:41:56;97836.8;;;20.31;61.035
24868;BME280;12941;48.698;9.310;2023-07-31T02:43:01;97839.4;;;20.31;61.002
24868;BME280;12941;48.698;9.310;2023-07-31T02:44:06;97845.4;;;20.32;61.301
24868;BME280;12941;48.698;9.310;2023-07-31T02:45:07;97845.4;;;20.32;61.146
24868;BME280;12941;48.698;9.310;2023-07-31T02:46:11;97842.1;;;20.3;60.946
24868;BME280;12941;48.698;9.310;2023-07-31T02:47:11;97843;;;20.3;60.661
24868;BME280;12941;48.698;9.310;2023-07-31T02:48:16;97839.70000000001;;;20.28;60.56
24868;BME280;12941;48.698;9.310;2023-07-31T02:49:21;97838;;;20.27;60.766
24868;BME280;12941;48.698;9.310;2023-07-31T02:50:26;97842.4;;;20.27;61.02
24868;BME280;12941;48.698;9.310;2023-07-31T02:51:26;97835.6;;;20.26;60.963
24868;BME280;12941;48.698;9.310;2023-07-31T02:52:31;97845.2;;;20.25;61.215
24868;BME280;12941;48.698;9.310;2023-07-31T02:53:36;97839.09999999999;;;20.25;61.235
24868;BME280;12941;48.698;9.310;2023-07-31T02:54:36;97834.7;;;20.25;61.248
24868;BME280;12941;48.698;9.310;2023-07-31T02:55:36;97841.6;;;20.26;61.514
24868;BME280;12941;48.698;9.310;2023-07-31T02:56:36;97841.09999999999;;;20.23;61.388
24868;BME280;12941;48.698;9.310;2023-07-31T02:57:36;97841.09999999999;;;20.23;61.332
24868;BME280;12941;48.698;9.310;2023-07-31T02:58:41;97841.2;;;20.21;61.056
24868;BME280;12941;48.698;9.310;2023-07-31T02:59:41;97830.9;;;20.2;60.921
24868;BME280;12941;48.698;9.310;2023-07-31T03:00:42;97836.3;;;20.18;61.096
24868;BME280;12941;48.698;9.310;2023-07-31T03:01:41;97834;;;20.15;61.233
24868;BME280;12941;48.698;9.310;2023-07-31T03:02:46;97824.59999999999;;;20.14;61.091
24868;BME280;12941;48.698;9.310;2023-07-31T03:03:47;97831.7;;;20.12;60.668
24868;BME280;12941;48.698;9.310;2023-07-31T03:04:46;97834.6;;;20.09;60.455
24868;BME280;12941;48.698;9.310;2023-07-31T03:05:51;97836.6;;;20.05;60.626
24868;BME280;12941;48.698;9.310;2023-07-31T03:06:52;97830;;;20.03;61.009
24868;BME280;12941;48.698;9.310;2023-07-31T03:07:51;97819.8;;;20;61.026
24868;BME280;12941;48.698;9.310;2023-07-31T03:08:51;97825;;;20;61.026
24868;BME280;12941;48.698;9.310;2023-07-31T03:09:56;97819.1;;;19.98;61.188
24868;BME280;12941;48.698;9.310;2023-07-31T03:11:01;97820;;;19.98;61.41
24868;BME280;12941;48.698;9.310;2023-07-31T03:12:01;97822.7;;;19.97;61.528
24868;BME280;12941;48.698;9.310;2023-07-31T03:13:06;97818.5;;;19.96;61.549
24868;BME280;12941;48.698;9.310;2023-07-31T03:14:07;97817.7;;;19.95;61.658
24868;BME280;12941;48.698;9.310;2023-07-31T03:15:11;97820.4;;;19.94;61.535
24868;BME280;12941;48.698;9.310;2023-07-31T03:16:11;97816.2;;;19.93;61.369
24868;BME280;12941;48.698;9.310;2023-07-31T03:17:16;97817.1;;;19.92;61.467
24868;BME280;12941;48.698;9.310;2023-07-31T03:18:21;97816.3;;;19.91;61.466
24868;BME280;12941;48.698;9.310;2023-07-31T03:19:21;97821.5;;;19.91;61.289
24868;BME280;12941;48.698;9.310;2023-07-31T03:20:21;97808.6;;;19.9;61.584
24868;BME280;12941;48.698;9.310;2023-07-31T03:21:21;97817.3;;;19.9;61.024
24868;BME280;12941;48.698;9.310;2023-07-31T03:22:21;97819;;;19.9;61.056
24868;BME280;12941;48.698;9.310;2023-07-31T03:23:27;97819.2;;;19.88;61.209
24868;BME280;12941;48.698;9.310;2023-07-31T03:24:28;97814.9;;;19.87;61.691
24868;BME280;12941;48.698;9.310;2023-07-31T03:25:31;97820.1;;;19.87;61.823
24868;BME280;12941;48.698;9.310;2023-07-31T03:26:32;97818.6;;;19.85;61.566
24868;BME280;12941;48.698;9.310;2023-07-31T03:27:32;97813.59999999999;;;19.83;61.663
24868;BME280;12941;48.698;9.310;2023-07-31T03:28:32;97823.2;;;19.83;61.354
24868;BME280;12941;48.698;9.310;2023-07-31T03:29:37;97818.1;;;19.81;61.386
24868;BME280;12941;48.698;9.310;2023-07-31T03:30:42;97825.9;;;19.81;61.627
24868;BME280;12941;48.698;9.310;2023-07-31T03:31:47;97825.09999999999;;;19.81;61.967
24868;BME280;12941;48.698;9.310;2023-07-31T03:32:52;97823.2;;;19.83;62.224
24868;BME280;12941;48.698;9.310;2023-07-31T03:33:52;97827.59999999999;;;19.82;62.312
24868;BME280;12941;48.698;9.310;2023-07-31T03:34:57;97828.4;;;19.83;62.246
24868;BME280;12941;48.698;9.310;2023-07-31T03:35:57;97821.6;;;19.82;62.277
24868;BME280;12941;48.698;9.310;2023-07-31T03:37:02;97826.8;;;19.82;62.124
24868;BME280;12941;48.698;9.310;2023-07-31T03:38:02;97827.59999999999;;;19.82;62.037
24868;BME280;12941;48.698;9.310;2023-07-31T03:39:07;97818.3;;;19.79;61.934
24868;BME280;12941;48.698;9.310;2023-07-31T03:40:12;97828.7;;;19.79;62.143
24868;BME280;12941;48.698;9.310;2023-07-31T03:41:17;97827.9;;;19.79;62.208
24868;BME280;12941;48.698;9.310;2023-07-31T03:42:22;97826.2;;;19.78;62.503
24868;BME280;12941;48.698;9.310;2023-07-31T03:43:27;97822.79999999999;;;19.77;62.745
24868;BME280;12941;48.698;9.310;2023-07-31T03:44:27;97825.40000000001;;;19.77;62.009
24868;BME280;12941;48.698;9.310;2023-07-31T03:45:32;97823.8;;;19.76;61.896
24868;BME280;12941;48.698;9.310;2023-07-31T03:46:32;97834.2;;;19.76;62.039
24868;BME280;12941;48.698;9.310;2023-07-31T03:47:32;97830.1;;;19.74;62.002
24868;BME280;12941;48.698;9.310;2023-07-31T03:48:37;97827.59999999999;;;19.72;62.154
24868;BME280;12941;48.698;9.310;2023-07-31T03:49:37;97826.9;;;19.7;62.218
24868;BME280;12941;48.698;9.310;2023-07-31T03:50:42;97826;;;19.71;62.439
24868;BME280;12941;48.698;9.310;2023-07-31T03:51:47;97831.3;;;19.7;62.173
24868;BME280;12941;48.698;9.310;2023-07-31T03:52:47;97825.2;;;19.71;62.164
24868;BME280;12941;48.698;9.310;2023-07-31T03:53:47;97828.59999999999;;;19.71;62.417
24868;BME280;12941;48.698;9.310;2023-07-31T03:54:52;97836.40000000001;;;19.71;62.274
24868;BME280;12941;48.698;9.310;2023-07-31T03:55:57;97840.8;;;19.71;62.187
24868;BME280;12941;48.698;9.310;2023-07-31T03:56:57;97835.79999999999;;;19.68;61.983
24868;BME280;12941;48.698;9.310;2023-07-31T03:57:57;97836.90000000001;;;19.65;61.957
24868;BME280;12941;48.698;9.310;2023-07-31T03:59:02;97835.79999999999;;;19.68;61.873
24868;BME280;12941;48.698;9.310;2023-07-31T04:00:07;97835;;;19.67;61.839
24868;BME280;12941;48.698;9.310;2023-07-31T04:01:12;97826.3;;;19.68;62.259
24868;BME280;12941;48.698;9.310;2023-07-31T04:02:12;97840.09999999999;;;19.69;62.457
24868;BME280;12941;48.698;9.310;2023-07-31T04:03:17;97831.5;;;19.68;62.237
24868;BME280;12941;48.698;9.310;2023-07-31T04:04:17;97833.1;;;19.69;62.117
24868;BME280;12941;48.698;9.310;2023-07-31T04:05:22;97834.7;;;19.7;61.932
24868;BME280;12941;48.698;9.310;2023-07-31T04:06:27;97834.7;;;19.7;61.965
24868;BME280;12941;48.698;9.310;2023-07-31T04:07:27;97827.9;;;19.69;61.502
24868;BME280;12941;48.698;9.310;2023-07-31T04:08:32;97830.6;;;19.68;61.664
24868;BME280;12941;48.698;9.310;2023-07-31T04:09:37;97829;;;19.67;61.729
24868;BME280;12941;48.698;9.310;2023-07-31T04:10:37;97838.59999999999;;;19.66;62.037
24868;BME280;12941;48.698;9.310;2023-07-31T04:11:37;97837.90000000001;;;19.64;62.132
24868;BME280;12941;48.698;9.310;2023-07-31T04:12:42;97840.5;;;19.64;62
24868;BME280;12941;48.698;9.310;2023-07-31T04:13:47;97841.3;;;19.65;61.913
24868;BME280;12941;48.698;9.310;2023-07-31T04:14:52;97840.5;;;19.64;61.967
24868;BME280;12941;48.698;9.310;2023-07-31T04:15:57;97845.7;;;19.64;61.758
24868;BME280;12941;48.698;9.310;2023-07-31T04:16:57;97842.4;;;19.62;61.942
24868;BME280;12941;48.698;9.310;2023-07-31T04:17:57;97837.2;;;19.62;61.986
24868;BME280;12941;48.698;9.310;2023-07-31T04:18:57;97839.8;;;19.62;62.085
24868;BME280;12941;48.698;9.310;2023-07-31T04:20:04;97835.6;;;19.61;61.853
24868;BME280;12941;48.698;9.310;2023-07-31T04:21:07;97842.6;;;19.61;61.699
24868;BME280;12941;48.698;9.310;2023-07-31T04:22:12;97838.3;;;19.6;61.905
24868;BME280;12941;48.698;9.310;2023-07-31T04:23:17;97838.5;;;19.58;62.102
24868;BME280;12941;48.698;9.310;2023-07-31T04:24:17;97831.5;;;19.59;62.037
24868;BME280;12941;48.698;9.310;2023-07-31T04:25:17;97829.7;;;19.59;62.037
24868;BME280;12941;48.698;9.310;2023-07-31T04:26:17;97825.59999999999;;;19.57;61.506
24868;BME280;12941;48.698;9.310;2023-07-31T04:27:22;97828.3;;;19.55;61.482
24868;BME280;12941;48.698;9.310;2023-07-31T04:28:27;97821.5;;;19.54;61.712
24868;BME280;12941;48.698;9.310;2023-07-31T04:29:27;97822.5;;;19.53;61.962
24868;BME280;12941;48.698;9.310;2023-07-31T04:30:32;97824.1;;;19.54;62.118
24868;BME280;12941;48.698;9.310;2023-07-31T04:31:37;97825.9;;;19.54;61.919
24868;BME280;12941;48.698;9.310;2023-07-31T04:32:42;97824.1;;;19.54;61.833
24868;BME280;12941;48.698;9.310;2023-07-31T04:33:42;97823;;;19.57;62.396
24868;BME280;12941;48.698;9.310;2023-07-31T04:34:47;97815.3;;;19.55;61.746
24868;BME280;12941;48.698;9.310;2023-07-31T04:35:49;97817.2;;;19.53;61.819
24868;BME280;12941;48.698;9.310;2023-07-31T04:36:47;97808.8;;;19.51;62.718
24868;BME280;12941;48.698;9.310;2023-07-31T04:37:52;97812.3;;;19.5;62.981
24868;BME280;12941;48.698;9.310;2023-07-31T04:38:57;97813.3;;;19.49;63.254
24868;BME280;12941;48.698;9.310;2023-07-31T04:40:02;97809.1;;;19.48;63.34
24868;BME280;12941;48.698;9.310;2023-07-31T04:41:07;97811.7;;;19.48;63.406
24868;BME280;12941;48.698;9.310;2023-07-31T04:42:07;97813.3;;;19.49;63.55
24868;BME280;12941;48.698;9.310;2023-07-31T04:43:12;97808;;;19.51;63.674
24868;BME280;12941;48.698;9.310;2023-07-31T04:44:17;97808.8;;;19.51;63.586
24868;BME280;12941;48.698;9.310;2023-07-31T04:45:17;97817.2;;;19.53;64.116
24868;BME280;12941;48.698;9.310;2023-07-31T04:46:22;97828.5;;;19.54;63.843
24868;BME280;12941;48.698;9.310;2023-07-31T04:47:22;97818.9;;;19.54;64.074
24868;BME280;12941;48.698;9.310;2023-07-31T04:48:27;97817;;;19.56;64.132
24868;BME280;12941;48.698;9.310;2023-07-31T04:49:27;97816;;;19.57;64.31
24868;BME280;12941;48.698;9.310;2023-07-31T04:50:32;97818.6;;;19.57;64.551
24868;BME280;12941;48.698;9.310;2023-07-31T04:51:37;97814.20000000001;;;19.58;64.573
24868;BME280;12941;48.698;9.310;2023-07-31T04:52:37;97817;;;19.56;64.341
24868;BME280;12941;48.698;9.310;2023-07-31T04:53:42;97822.2;;;19.56;64.396
24868;BME280;12941;48.698;9.310;2023-07-31T04:54:42;97827.09999999999;;;19.59;64.225
24868;BME280;12941;48.698;9.310;2023-07-31T04:55:47;97832.3;;;19.59;64.137
24868;BME280;12941;48.698;9.310;2023-07-31T04:56:47;97830.4;;;19.61;64.337
24868;BME280;12941;48.698;9.310;2023-07-31T04:57:47;97831.1;;;19.63;64.581
24868;BME280;12941;48.698;9.310;2023-07-31T04:58:52;97823.2;;;19.63;64.604
24868;BME280;12941;48.698;9.310;2023-07-31T04:59:52;97825;;;19.63;64.142
24868;BME280;12941;48.698;9.310;2023-07-31T05:00:57;97818;;;19.63;64.372
24868;BME280;12941;48.698;9.310;2023-07-31T05:01:57;97817.9;;;19.65;64.342
24868;BME280;12941;48.698;9.310;2023-07-31T05:02:57;97816.3;;;19.64;63.857
24868;BME280;12941;48.698;9.310;2023-07-31T05:04:03;97810.1;;;19.65;64.925
24868;BME280;12941;48.698;9.310;2023-07-31T05:05:08;97810.90000000001;;;19.65;64.584
24868;BME280;12941;48.698;9.310;2023-07-31T05:06:12;97804.9;;;19.65;64.023
24868;BME280;12941;48.698;9.310;2023-07-31T05:07:12;97813.5;;;19.65;64.727
24868;BME280;12941;48.698;9.310;2023-07-31T05:08:12;97821;;;19.68;63.82
24868;BME280;12941;48.698;9.310;2023-07-31T05:09:17;97812.40000000001;;;19.68;63.874
24868;BME280;12941;48.698;9.310;2023-07-31T05:10:17;97812.40000000001;;;19.68;63.885
24868;BME280;12941;48.698;9.310;2023-07-31T05:11:17;97815.9;;;19.68;64.051
24868;BME280;12941;48.698;9.310;2023-07-31T05:12:17;97818.3;;;19.7;64.283
24868;BME280;12941;48.698;9.310;2023-07-31T05:13:18;97815.59999999999;;;19.71;64.33
24868;BME280;12941;48.698;9.310;2023-07-31T05:14:23;97811.7;;;19.75;63.842
24868;BME280;12941;48.698;9.310;2023-07-31T05:15:23;97809;;;19.77;64.063
24868;BME280;12941;48.698;9.310;2023-07-31T05:16:28;97809.79999999999;;;19.77;63.471
24868;BME280;12941;48.698;9.310;2023-07-31T05:17:32;97814;;;19.78;63.746
24868;BME280;12941;48.698;9.310;2023-07-31T05:18:32;97817.5;;;19.79;63.725
24868;BME280;12941;48.698;9.310;2023-07-31T05:19:37;97820.1;;;19.79;63.89
24868;BME280;12941;48.698;9.310;2023-07-31T05:20:38;97820.1;;;19.79;64.143
24868;BME280;12941;48.698;9.310;2023-07-31T05:21:42;97823.5;;;19.79;64.078
24868;BME280;12941;48.698;9.310;2023-07-31T05:22:43;97812.09999999999;;;19.81;63.957
24868;BME280;12941;48.698;9.310;2023-07-31T05:23:42;97809.3;;;19.82;63.643
24868;BME280;12941;48.698;9.310;2023-07-31T05:24:43;97812.8;;;19.83;63.852
24868;BME280;12941;48.698;9.310;2023-07-31T05:25:43;97808.4;;;19.83;64.071